Time;durP1;ratioP1;P1;durP2;ratioP2;P2;SDS_P1;SDS_P2;PMS_P1;PMS_P2;Temp;Humidity;BMP_temperature;BMP_pressure;BME280_temperature;BME280_humidity;BME280_pressure;Samples;Min_cycle;Max_cycle;Signal;HPM_P1;HPM_P2
2022/07/10 00:01:38;;;;;;;7.05;3.60;;;18.80;99.90;;;19.24;59.25;102726.75;5054932;28;20048;-62
2022/07/10 00:04:06;;;;;;;5.68;3.38;;;18.80;99.90;;;19.22;59.54;102728.53;5054748;28;20040;-63
2022/07/10 00:06:34;;;;;;;6.38;3.70;;;18.70;99.90;;;19.32;59.64;102732.03;5054426;28;20103;-62
2022/07/10 00:09:03;;;;;;;4.63;3.33;;;18.80;99.90;;;19.22;60.41;102727.69;5054351;28;20124;-62
2022/07/10 00:11:31;;;;;;;7.53;3.45;;;18.70;99.90;;;19.22;59.88;102731.22;5054475;28;20499;-62
2022/07/10 00:13:59;;;;;;;9.82;4.05;;;18.80;99.90;;;19.19;59.50;102730.38;5054822;28;20037;-63
2022/07/10 00:16:29;;;;;;;5.55;3.35;;;18.70;99.90;;;19.17;59.61;102725.03;5054186;28;20445;-62
2022/07/10 00:18:57;;;;;;;8.50;4.03;;;18.80;99.90;;;19.17;59.69;102726.81;5054209;28;20041;-62
2022/07/10 00:21:26;;;;;;;9.60;3.83;;;18.70;99.90;;;19.14;59.80;102727.75;5054142;28;20444;-63
2022/07/10 00:23:54;;;;;;;5.00;3.53;;;18.70;99.90;;;19.15;59.49;102725.94;5054130;28;20033;-62
2022/07/10 00:26:23;;;;;;;8.27;3.92;;;18.70;99.90;;;19.21;59.32;102720.50;5053006;28;20056;-63
2022/07/10 00:28:51;;;;;;;6.32;3.40;;;18.70;99.90;;;19.20;59.74;102724.13;5054571;28;20449;-62
2022/07/10 00:31:19;;;;;;;8.82;3.45;;;18.70;99.90;;;19.19;59.43;102719.63;5053955;28;20072;-63
2022/07/10 00:33:50;;;;;;;9.38;3.90;;;18.70;99.90;;;19.21;59.31;102725.88;5052890;28;20429;-62
2022/07/10 00:36:19;;;;;;;9.13;3.75;;;18.70;99.90;;;19.17;59.65;102710.72;5053822;28;20044;-63
2022/07/10 00:38:47;;;;;;;7.60;3.60;;;18.70;99.90;;;19.09;59.52;102705.44;5053803;28;20135;-63
2022/07/10 00:41:15;;;;;;;7.95;4.18;;;18.70;99.90;;;19.13;59.65;102706.28;5053702;28;20045;-63
2022/07/10 00:43:54;;;;;;;5.43;3.47;;;18.60;99.90;;;18.85;59.82;102682.41;5053612;28;20032;-63
2022/07/10 00:46:23;;;;;;;9.85;4.13;;;18.50;99.90;;;18.98;59.89;102701.06;5053857;28;20450;-62
2022/07/10 00:48:53;;;;;;;6.47;3.67;;;18.50;99.90;;;18.89;60.33;102708.31;5053752;28;20443;-63
2022/07/10 00:51:24;;;;;;;6.78;3.20;;;18.50;99.90;;;18.83;60.79;102710.16;5054050;28;20048;-62
2022/07/10 00:53:54;;;;;;;8.23;3.65;;;18.40;99.90;;;18.69;60.86;102699.56;5053679;28;20479;-63
2022/07/10 00:56:25;;;;;;;5.90;3.50;;;18.30;99.90;;;18.73;60.83;102711.16;5053332;28;20468;-62
2022/07/10 00:58:54;;;;;;;10.35;3.63;;;18.30;99.90;;;18.74;60.86;102705.75;5054206;28;20041;-63
2022/07/10 01:01:23;;;;;;;7.38;3.20;;;18.30;99.90;;;18.74;60.85;102711.13;5053395;28;20077;-63
2022/07/10 01:03:53;;;;;;;6.85;3.53;;;18.30;99.90;;;18.77;60.70;102703.06;5052305;28;20051;-63
2022/07/10 01:06:21;;;;;;;7.80;3.63;;;18.30;99.90;;;18.69;60.79;102694.19;5053784;28;20041;-63
2022/07/10 01:08:49;;;;;;;6.55;3.42;;;18.30;99.90;;;18.64;60.97;102706.75;5053154;28;20552;-62
2022/07/10 01:11:18;;;;;;;8.73;3.85;;;18.20;99.90;;;18.70;60.87;102705.78;5053132;28;20094;-62
2022/07/10 01:13:46;;;;;;;8.30;3.45;;;18.20;99.90;;;18.58;60.98;102688.03;5053294;28;20060;-63
2022/07/10 01:16:14;;;;;;;5.20;3.30;;;18.20;99.90;;;18.60;61.08;102693.41;5053052;28;20402;-62
2022/07/10 01:18:43;;;;;;;6.75;3.30;;;18.20;99.90;;;18.63;61.28;102693.34;5053100;28;20041;-62
2022/07/10 01:21:26;;;;;;;7.60;3.38;;;18.20;99.90;;;18.63;61.57;102688.88;5052934;28;20059;-62
2022/07/10 01:23:54;;;;;;;6.15;3.60;;;18.20;99.90;;;18.59;61.41;102678.19;5053221;28;20041;-63
2022/07/10 01:26:24;;;;;;;8.18;3.42;;;18.20;99.90;;;18.69;61.43;102688.84;5053411;28;20041;-63
2022/07/10 01:28:54;;;;;;;8.30;3.50;;;18.20;99.90;;;18.60;61.71;102659.41;5052829;28;20045;-62
2022/07/10 01:31:25;;;;;;;;;;;18.30;99.90;;;18.58;61.93;102684.47;5053259;28;20135;-62
2022/07/10 01:33:55;;;;;;;8.50;3.90;;;18.20;99.90;;;18.47;62.55;102673.81;5053122;28;20267;-63
2022/07/10 01:36:25;;;;;;;8.95;4.22;;;18.20;99.90;;;18.49;62.49;102684.53;5052960;28;20080;-62
2022/07/10 01:38:55;;;;;;;7.85;3.50;;;18.10;99.90;;;18.39;62.99;102659.56;5052729;28;20041;-62
2022/07/10 01:41:24;;;;;;;8.03;3.83;;;18.00;99.90;;;18.28;63.19;102649.81;5052730;28;20060;-63
2022/07/10 01:43:53;;;;;;;5.40;3.55;;;18.00;99.90;;;18.59;62.60;102670.16;5052632;28;20103;-62
2022/07/10 01:46:22;;;;;;;6.28;3.97;;;18.00;99.90;;;18.56;62.85;102678.22;5052946;28;20052;-62
2022/07/10 01:48:50;;;;;;;6.00;3.65;;;18.00;99.90;;;18.49;63.08;102674.69;5052561;28;20045;-63
2022/07/10 01:51:18;;;;;;;10.85;3.97;;;18.00;99.90;;;18.46;63.94;102676.53;5052701;28;20057;-62
2022/07/10 01:53:48;;;;;;;7.65;3.50;;;18.00;99.90;;;18.39;64.42;102672.09;5053080;28;20112;-62
2022/07/10 01:56:17;;;;;;;9.90;4.23;;;18.00;99.90;;;18.28;64.38;102669.47;5052543;28;20076;-62
2022/07/10 01:58:46;;;;;;;6.38;3.50;;;17.90;99.90;;;18.14;64.30;102657.97;5051169;28;20106;-62
2022/07/10 02:01:14;;;;;;;7.60;3.45;;;17.80;99.90;;;18.37;63.85;102676.56;5052632;28;20111;-63
2022/07/10 02:06:28;;;;;;;6.18;3.55;;;17.90;99.90;;;18.35;64.97;102663.16;5052489;28;20049;-62
2022/07/10 02:08:58;;;;;;;5.82;3.63;;;17.90;99.90;;;18.34;64.68;102666.75;5052446;28;20041;-62
2022/07/10 02:11:26;;;;;;;6.15;3.58;;;17.90;99.90;;;18.29;65.06;102665.00;5052486;28;20056;-62
2022/07/10 02:13:55;;;;;;;5.32;3.17;;;17.90;99.90;;;18.18;68.14;102670.44;5052389;28;20065;-62
2022/07/10 02:16:23;;;;;;;4.07;3.30;;;17.80;99.90;;;18.13;69.08;102672.28;5052315;28;20072;-62
2022/07/10 02:18:51;;;;;;;5.70;3.65;;;17.70;99.90;;;18.03;70.27;102675.91;5052609;28;20052;-63
2022/07/10 02:21:20;;;;;;;4.13;3.80;;;17.60;99.90;;;17.86;71.03;102649.25;5052579;28;20437;-62
2022/07/10 02:23:48;;;;;;;9.07;3.83;;;17.50;99.90;;;17.99;70.51;102666.09;5055945;28;20120;-62
2022/07/10 02:26:18;;;;;;;4.78;3.78;;;17.50;99.90;;;17.90;69.38;102667.03;5056169;28;20132;-63
2022/07/10 02:28:46;;;;;;;6.78;3.42;;;17.50;99.90;;;17.81;70.33;102666.19;5056485;28;20456;-63
2022/07/10 02:31:14;;;;;;;5.70;3.60;;;17.40;99.90;;;17.78;70.38;102679.63;5055118;28;20145;-62
2022/07/10 02:33:43;;;;;;;4.38;3.42;;;17.30;99.90;;;17.85;70.90;102674.22;5055995;28;20056;-62
2022/07/10 02:36:11;;;;;;;4.90;3.63;;;17.40;99.90;;;17.80;71.73;102680.50;5055998;28;20044;-62
2022/07/10 02:38:39;;;;;;;7.97;4.10;;;17.30;99.90;;;17.82;71.55;102679.59;5056185;28;20124;-63
2022/07/10 02:41:08;;;;;;;5.95;3.85;;;17.30;99.90;;;17.85;71.21;102678.66;5055941;28;20457;-62
2022/07/10 02:43:38;;;;;;;5.47;3.55;;;17.30;99.90;;;17.77;69.72;102664.44;5055755;28;20457;-62
2022/07/10 02:46:07;;;;;;;7.72;3.60;;;17.30;99.90;;;17.78;69.51;102666.22;5055814;28;20095;-62
2022/07/10 02:48:35;;;;;;;8.27;3.90;;;17.30;99.90;;;17.67;69.45;102665.41;5055808;28;20447;-62
2022/07/10 02:51:04;;;;;;;6.95;4.25;;;17.20;99.90;;;17.76;69.14;102660.00;5055745;28;20506;-62
2022/07/10 02:53:32;;;;;;;10.27;4.13;;;17.30;99.90;;;17.76;68.68;102662.66;5055694;28;20139;-62
2022/07/10 02:56:00;;;;;;;6.82;4.00;;;17.30;99.90;;;17.71;68.66;102659.13;5055853;28;20124;-62
2022/07/10 02:58:29;;;;;;;9.40;3.63;;;17.30;99.90;;;17.72;68.10;102663.56;5055871;28;20398;-62
2022/07/10 03:00:59;;;;;;;8.25;4.43;;;17.30;99.90;;;17.79;68.18;102662.63;5055896;28;20049;-63
2022/07/10 03:03:27;;;;;;;5.32;3.75;;;17.30;99.90;;;17.73;68.41;102650.19;5055791;28;20040;-62
2022/07/10 03:05:55;;;;;;;9.55;4.32;;;17.30;99.90;;;17.70;68.40;102652.88;5055458;28;20037;-62
2022/07/10 03:08:24;;;;;;;6.85;3.80;;;17.30;99.90;;;17.72;68.42;102647.50;5055649;28;20121;-62
2022/07/10 03:10:52;;;;;;;6.25;4.25;;;17.20;99.90;;;17.75;68.04;102637.69;5055343;28;20049;-63
2022/07/10 03:13:21;;;;;;;8.15;3.63;;;17.30;99.90;;;17.80;68.08;102637.66;5055321;28;20045;-63
2022/07/10 03:15:49;;;;;;;9.95;4.13;;;17.30;99.90;;;17.57;67.95;102626.19;5055250;28;20132;-62
2022/07/10 03:18:19;;;;;;;5.93;3.60;;;17.30;99.90;;;17.70;69.29;102620.75;5055488;28;20037;-62
2022/07/10 03:20:47;;;;;;;7.50;4.25;;;17.40;99.90;;;17.78;70.69;102644.81;5054421;28;20052;-62
2022/07/10 03:23:15;;;;;;;10.20;3.70;;;17.40;99.90;;;17.70;70.50;102642.19;5055671;28;20041;-62
2022/07/10 03:25:44;;;;;;;6.22;3.65;;;17.30;99.90;;;17.68;70.15;102640.41;5055194;28;20041;-62
2022/07/10 03:28:12;;;;;;;5.43;3.75;;;17.20;99.90;;;17.66;70.98;102642.19;5053936;28;20490;-62
2022/07/10 03:30:41;;;;;;;5.50;3.70;;;17.20;99.90;;;17.61;71.93;102638.66;5054880;28;20415;-62
2022/07/10 03:33:09;;;;;;;5.85;3.42;;;17.20;99.90;;;17.72;72.66;102644.84;5054645;28;20738;-63
2022/07/10 03:35:39;;;;;;;5.18;3.42;;;17.20;99.90;;;17.69;73.29;102639.53;5054862;28;20517;-62
2022/07/10 03:38:08;;;;;;;6.50;3.92;;;17.20;99.90;;;17.58;74.05;102635.97;5054835;28;20479;-62
2022/07/10 03:40:36;;;;;;;5.97;3.97;;;17.20;99.90;;;17.59;74.08;102637.78;5055297;28;20043;-62
2022/07/10 03:43:04;;;;;;;4.18;3.33;;;17.20;99.90;;;17.37;73.71;102628.03;5054694;28;20045;-63
2022/07/10 03:45:33;;;;;;;5.07;3.70;;;17.00;99.90;;;17.51;74.04;102635.13;5055255;28;20044;-63
2022/07/10 03:48:01;;;;;;;3.65;3.35;;;17.00;99.90;;;17.43;74.63;102638.69;5054620;28;20072;-63
2022/07/10 03:50:29;;;;;;;4.18;3.38;;;17.00;99.90;;;17.45;74.54;102634.22;5054788;28;20148;-62
2022/07/10 03:52:59;;;;;;;7.18;3.85;;;17.00;99.90;;;17.43;74.86;102623.53;5054535;28;20049;-62
2022/07/10 03:55:27;;;;;;;8.33;3.77;;;17.00;99.90;;;17.42;75.27;102624.41;5054902;28;20462;-62
2022/07/10 03:57:56;;;;;;;4.35;3.47;;;16.90;99.90;;;17.48;76.11;102623.53;5054403;28;20465;-63
2022/07/10 04:00:27;;;;;;;4.57;3.00;;;17.00;99.90;;;17.57;76.28;102611.03;5054322;28;20376;-63
2022/07/10 04:02:57;;;;;;;7.25;4.03;;;17.10;99.90;;;17.71;76.49;102633.22;5054362;28;20068;-63
2022/07/10 04:05:26;;;;;;;4.60;3.45;;;17.20;99.90;;;17.68;76.40;102625.22;5054612;28;20453;-62
2022/07/10 04:07:56;;;;;;;5.53;3.67;;;17.20;99.90;;;17.78;76.66;102632.31;5054420;28;20098;-62
2022/07/10 04:10:27;;;;;;;4.93;3.50;;;17.30;99.90;;;17.83;76.85;102637.63;5054639;28;20124;-62
2022/07/10 04:12:55;;;;;;;5.47;3.47;;;17.30;99.90;;;17.85;76.51;102635.81;5054358;28;20482;-62
2022/07/10 04:15:24;;;;;;;5.60;3.53;;;17.40;99.90;;;17.80;75.70;102638.56;5054403;28;20069;-62
2022/07/10 04:17:53;;;;;;;8.20;3.90;;;17.40;99.90;;;18.00;75.12;102638.44;5054269;28;20065;-62
2022/07/10 04:20:23;;;;;;;11.32;4.35;;;17.50;99.90;;;17.95;74.87;102629.53;5053956;28;20045;-62
2022/07/10 04:22:51;;;;;;;7.40;3.65;;;17.50;99.90;;;18.02;75.23;102625.94;5054116;28;20122;-63
2022/07/10 04:25:19;;;;;;;5.75;3.40;;;17.50;99.90;;;17.91;74.91;102603.66;5054265;28;20045;-62
2022/07/10 04:27:49;;;;;;;7.68;3.80;;;17.60;99.90;;;18.12;74.01;102619.56;5054455;28;20172;-62
2022/07/10 04:30:17;;;;;;;7.15;3.78;;;17.70;99.90;;;18.14;73.85;102633.00;5054011;28;20497;-63
2022/07/10 04:32:45;;;;;;;8.02;3.65;;;17.70;99.90;;;18.19;75.72;102628.47;5053688;28;20079;-62
2022/07/10 04:35:14;;;;;;;9.13;3.90;;;17.70;99.90;;;18.37;75.51;102634.56;5053885;28;20040;-62
2022/07/10 04:37:42;;;;;;;8.73;3.75;;;17.80;99.90;;;18.43;75.40;102633.66;5054079;28;20492;-62
2022/07/10 04:40:12;;;;;;;7.45;3.65;;;17.90;99.90;;;18.44;74.42;102628.31;5054105;28;20132;-62
2022/07/10 04:42:40;;;;;;;7.13;3.90;;;18.00;99.90;;;18.44;73.64;102639.03;5053464;28;20102;-62
2022/07/10 04:45:11;;;;;;;8.43;4.10;;;17.90;99.90;;;18.37;74.34;102636.38;5052896;28;20072;-62
2022/07/10 04:47:39;;;;;;;;;;;17.90;99.90;;;18.49;73.63;102639.84;5054584;28;20053;-63
2022/07/10 04:50:09;;;;;;;8.52;3.80;;;18.00;99.90;;;18.51;74.02;102638.06;5053609;28;20274;-62
2022/07/10 04:52:37;;;;;;;11.75;3.85;;;18.00;99.90;;;18.46;74.70;102642.59;5053512;28;20099;-62
2022/07/10 04:55:07;;;;;;;9.25;4.20;;;18.00;99.90;;;18.57;73.10;102642.47;5054154;28;20047;-62
2022/07/10 04:57:36;;;;;;;8.07;3.55;;;18.10;99.90;;;18.44;73.28;102632.75;5068942;28;20487;-62
2022/07/10 05:00:06;;;;;;;8.65;3.90;;;18.00;99.90;;;18.46;73.12;102634.53;5053194;28;20075;-63
2022/07/10 05:02:35;;;;;;;9.60;3.80;;;18.00;99.90;;;18.31;74.22;102637.28;5053531;28;20443;-62
2022/07/10 05:05:05;;;;;;;6.63;3.60;;;17.90;99.90;;;18.26;73.61;102633.75;5053750;28;20363;-63
2022/07/10 05:07:33;;;;;;;11.35;4.00;;;17.80;99.90;;;18.47;73.48;102641.66;5053172;28;20075;-63
2022/07/10 05:10:01;;;;;;;7.95;4.05;;;18.00;99.90;;;18.38;73.18;102636.34;5053410;28;20041;-63
2022/07/10 05:12:30;;;;;;;7.45;4.32;;;18.00;99.90;;;18.37;72.98;102642.59;5053169;28;20047;-63
2022/07/10 05:14:59;;;;;;;7.07;3.75;;;18.00;99.90;;;18.51;72.29;102647.88;5053217;28;20063;-63
2022/07/10 05:17:28;;;;;;;13.23;4.18;;;18.00;99.90;;;18.46;72.18;102647.94;5053034;28;20037;-62
2022/07/10 05:19:57;;;;;;;9.70;3.60;;;18.00;99.90;;;18.79;72.07;102652.97;5052970;28;20045;-62
2022/07/10 05:22:26;;;;;;;9.05;3.95;;;18.20;99.90;;;18.82;71.50;102650.28;5053273;28;20053;-62
2022/07/10 05:24:54;;;;;;;7.60;3.90;;;18.30;99.90;;;18.20;71.53;102549.88;5053052;28;20073;-62
2022/07/10 05:27:23;;;;;;;9.48;4.05;;;18.30;99.90;;;18.56;71.07;102638.88;5053740;28;20076;-62
2022/07/10 05:29:51;;;;;;;8.35;4.03;;;18.20;99.90;;;18.56;71.04;102638.88;5051969;28;20602;-62
2022/07/10 05:32:20;;;;;;;6.45;3.72;;;18.10;99.90;;;18.53;71.14;102646.06;5053045;28;20044;-62
2022/07/10 05:34:48;;;;;;;6.90;3.72;;;18.10;99.90;;;18.60;71.97;102646.00;5053053;28;20048;-62
2022/07/10 05:37:18;;;;;;;9.40;3.75;;;18.20;99.90;;;18.37;71.33;102647.97;5053029;28;20467;-62
2022/07/10 05:39:46;;;;;;;5.63;3.83;;;18.00;99.90;;;18.37;72.35;102641.72;5053182;28;20045;-62
2022/07/10 05:42:14;;;;;;;9.63;3.70;;;17.90;99.90;;;18.48;71.52;102642.56;5052891;28;20291;-62
2022/07/10 05:44:43;;;;;;;9.43;4.18;;;18.10;99.90;;;18.30;71.91;102619.44;5052119;28;20049;-63
2022/07/10 05:47:12;;;;;;;10.13;3.80;;;18.00;99.90;;;18.51;71.36;102638.06;5053137;28;20047;-62
2022/07/10 05:49:40;;;;;;;8.23;3.95;;;18.10;99.90;;;18.57;71.06;102638.00;5085165;28;20099;-62
2022/07/10 05:52:09;;;;;;;7.82;3.55;;;18.20;99.90;;;18.56;71.74;102636.22;5053247;28;20451;-62
2022/07/10 05:54:39;;;;;;;5.47;3.30;;;18.10;99.90;;;18.61;71.83;102631.72;5052742;28;20049;-62
2022/07/10 05:57:07;;;;;;;7.95;3.80;;;18.10;99.90;;;18.47;72.64;102635.41;5053935;28;20079;-63
2022/07/10 05:59:36;;;;;;;8.90;4.50;;;18.10;99.90;;;18.80;71.22;102637.78;5057029;28;20049;-62
2022/07/10 06:02:05;;;;;;;7.57;3.70;;;18.30;99.90;;;18.85;71.22;102641.31;5057037;28;20044;-63
2022/07/10 06:04:33;;;;;;;9.23;4.10;;;18.40;99.90;;;19.08;71.05;102630.34;5056763;28;20037;-63
2022/07/10 06:07:02;;;;;;;9.95;4.05;;;18.60;99.90;;;19.06;70.80;102641.09;5057064;28;20149;-62
2022/07/10 06:09:30;;;;;;;8.38;3.90;;;18.70;99.90;;;19.28;69.95;102639.91;5057323;28;20044;-62
2022/07/10 06:12:00;;;;;;;9.57;3.88;;;18.90;99.90;;;19.47;69.53;102632.59;5056932;28;20110;-63
2022/07/10 06:14:28;;;;;;;7.72;3.75;;;19.10;99.90;;;19.32;69.81;102638.09;5056946;28;20044;-63
2022/07/10 06:16:56;;;;;;;6.57;3.53;;;19.00;99.90;;;19.39;69.12;102635.38;5056596;28;20148;-63
2022/07/10 06:19:24;;;;;;;8.98;4.00;;;19.10;99.90;;;18.98;70.11;102634.91;5056466;28;20132;-62
2022/07/10 06:24:35;;;;;;;9.18;3.65;;;18.60;99.90;;;18.96;70.26;102641.19;5056141;28;20104;-63
2022/07/10 06:27:06;;;;;;;8.85;3.90;;;18.60;99.90;;;19.24;70.17;102637.31;5056557;28;20071;-62
2022/07/10 06:29:34;;;;;;;7.55;4.10;;;18.80;99.90;;;19.49;69.79;102628.94;5056386;28;20056;-63
2022/07/10 06:32:02;;;;;;;9.18;3.38;;;19.00;99.90;;;19.58;69.26;102647.66;5056766;28;20123;-62
2022/07/10 06:34:31;;;;;;;5.72;3.60;;;19.20;99.90;;;19.54;69.26;102639.63;5056470;28;20065;-63
2022/07/10 06:36:59;;;;;;;8.93;3.47;;;19.30;99.90;;;19.34;69.75;102637.19;5056137;28;20044;-63
2022/07/10 06:39:33;;;;;;;7.22;3.53;;;19.10;99.90;;;19.22;69.51;102637.31;5055984;28;20094;-63
2022/07/10 06:42:02;;;;;;;9.85;3.67;;;18.90;99.90;;;18.95;70.59;102636.75;5056011;28;20053;-63
2022/07/10 06:44:32;;;;;;;9.75;4.63;;;18.70;99.90;;;19.07;70.03;102644.63;5056195;28;20040;-63
2022/07/10 06:49:49;;;;;;;7.75;3.78;;;18.70;99.90;;;18.96;70.36;102592.91;5055672;28;20083;-63
2022/07/10 06:52:18;;;;;;;6.80;3.85;;;18.80;99.90;;;19.23;70.96;102638.19;5055918;28;20409;-62
2022/07/10 06:54:47;;;;;;;6.60;3.58;;;18.80;99.90;;;19.06;70.55;102635.72;5056020;28;20124;-62
2022/07/10 06:57:15;;;;;;;6.90;3.92;;;18.70;99.90;;;19.20;71.27;102638.25;5056125;28;20111;-62
2022/07/10 06:59:45;;;;;;;8.95;3.83;;;18.80;99.90;;;19.13;70.58;102641.91;5055654;28;20522;-63
2022/07/10 07:02:13;;;;;;;7.27;4.00;;;18.80;99.90;;;19.30;70.21;102640.78;5055977;28;20103;-63
2022/07/10 07:04:42;;;;;;;7.95;3.88;;;18.90;99.90;;;19.15;70.06;102650.81;5055604;28;20294;-63
2022/07/10 07:07:10;;;;;;;8.43;3.90;;;18.80;99.90;;;19.41;69.76;102643.41;5055645;28;20391;-63
2022/07/10 07:09:39;;;;;;;7.05;3.88;;;19.00;99.90;;;19.42;70.12;102640.69;5055562;28;20048;-63
2022/07/10 07:12:08;;;;;;;6.85;3.60;;;19.00;99.90;;;19.52;69.59;102638.78;5055627;28;20037;-63
2022/07/10 07:14:37;;;;;;;6.00;3.60;;;19.10;99.90;;;19.59;70.15;102644.03;5055664;28;20076;-63
2022/07/10 07:17:14;;;;;;;4.75;3.53;;;19.10;99.90;;;19.56;69.11;102643.19;5088101;28;20056;-62
2022/07/10 07:25:14;;;;;;;7.10;3.83;;;19.30;99.90;;;19.57;68.34;102644.94;5055534;28;20103;-63
2022/07/10 07:27:43;;;;;;;7.05;3.63;;;19.30;99.90;;;19.71;68.26;102648.34;5055102;28;20088;-62
2022/07/10 07:30:14;;;;;;;7.22;3.42;;;19.30;99.90;;;19.84;67.65;102639.22;5070717;28;20132;-62
2022/07/10 07:32:45;;;;;;;6.13;3.65;;;19.40;99.90;;;20.06;67.51;102654.13;5055265;28;20049;-62
2022/07/10 07:35:15;;;;;;;8.35;3.88;;;19.70;99.90;;;20.14;66.83;102643.25;5055325;28;20402;-62
2022/07/10 07:37:46;;;;;;;7.17;3.83;;;19.80;99.90;;;20.29;65.89;102637.66;5055250;28;20414;-62
2022/07/10 07:40:15;;;;;;;;;;;20.00;99.90;;;20.43;66.42;102649.97;5055621;28;20057;-60
2022/07/10 07:42:44;;;;;;;5.78;3.38;;;20.10;99.90;;;20.46;66.30;102643.66;5054834;28;20018;-61
2022/07/10 07:45:12;;;;;;;10.75;4.20;;;20.10;99.90;;;20.48;66.37;102655.25;5054801;28;20049;-60
2022/07/10 07:47:46;;;;;;;8.63;3.42;;;20.10;99.90;;;20.37;66.30;102646.50;5055311;28;20045;-61
2022/07/10 07:50:17;;;;;;;5.22;3.08;;;20.10;99.90;;;20.35;66.18;102653.69;5055136;28;20081;-61
2022/07/10 07:52:45;;;;;;;;;;;20.00;99.90;;;20.31;66.10;102646.59;5055308;28;20567;-60
2022/07/10 07:55:17;;;;;;;6.22;3.45;;;20.00;99.90;;;20.44;65.39;102646.34;5054811;28;20011;-61
2022/07/10 07:57:46;;;;;;;8.80;4.13;;;20.10;99.90;;;20.46;65.58;102657.97;5054840;28;20079;-60
2022/07/10 08:00:17;;;;;;;8.35;3.67;;;20.10;99.90;;;20.42;66.11;102640.13;5054457;28;20044;-69
2022/07/10 08:02:47;;;;;;;7.38;3.47;;;20.10;99.90;;;20.47;65.84;102643.63;5054623;28;20099;-59
2022/07/10 08:05:16;;;;;;;7.43;3.40;;;20.20;99.90;;;20.68;65.61;102642.38;5054803;28;20049;-60
2022/07/10 08:07:47;;;;;;;10.07;3.58;;;20.40;99.90;;;20.72;65.21;102648.56;5054706;28;20045;-59
2022/07/10 08:10:17;;;;;;;4.60;3.28;;;20.40;99.90;;;20.70;64.89;102643.22;5054777;28;20083;-60
2022/07/10 08:12:46;;;;;;;6.68;3.60;;;20.40;99.90;;;20.48;65.00;102640.03;5055128;28;20045;-59
2022/07/10 08:15:17;;;;;;;6.75;3.83;;;20.30;99.90;;;20.58;64.53;102668.53;5054428;28;20099;-61
2022/07/10 08:17:49;;;;;;;5.55;3.20;;;20.30;99.90;;;20.58;65.42;102647.03;5054402;28;20099;-62
2022/07/10 08:20:18;;;;;;;6.13;4.07;;;20.30;99.90;;;20.62;65.48;102643.38;5053543;28;20041;-60
2022/07/10 08:22:48;;;;;;;5.68;3.58;;;20.30;99.90;;;20.77;64.28;102652.09;5054042;28;20405;-59
2022/07/10 08:25:23;;;;;;;10.95;4.10;;;20.40;99.90;;;20.86;64.57;102646.53;5054463;28;20446;-58
2022/07/10 08:27:52;;;;;;;7.05;3.45;;;20.50;99.90;;;20.83;64.37;102651.97;5054296;28;20542;-58
2022/07/10 08:30:20;;;;;;;6.63;3.47;;;20.60;99.90;;;20.90;64.16;102654.53;5054035;28;20052;-59
2022/07/10 08:32:50;;;;;;;7.45;4.10;;;20.60;99.90;;;20.90;64.84;102651.84;5054215;28;20037;-59
2022/07/10 08:35:18;;;;;;;4.20;3.33;;;20.60;99.90;;;20.98;63.91;102657.06;5053762;28;20566;-59
2022/07/10 08:37:46;;;;;;;6.55;3.47;;;20.60;99.90;;;21.12;63.77;102650.53;5053942;28;20051;-59
2022/07/10 08:40:18;;;;;;;8.95;3.38;;;20.80;99.90;;;21.24;64.72;102654.78;5053703;28;20068;-59
2022/07/10 08:42:47;;;;;;;7.72;3.50;;;20.90;99.90;;;21.23;64.16;102653.03;5053043;28;20049;-59
2022/07/10 08:45:18;;;;;;;6.32;3.25;;;21.00;99.90;;;21.08;63.75;102653.34;5052562;28;20200;-59
2022/07/10 08:47:47;;;;;;;7.55;3.72;;;20.80;99.90;;;21.06;64.05;102658.72;5053938;28;20462;-59
2022/07/10 08:50:23;;;;;;;5.43;3.40;;;20.70;99.90;;;21.06;63.40;102636.31;5053630;28;20132;-59
2022/07/10 08:53:00;;;;;;;7.93;3.63;;;20.80;99.90;;;21.23;63.26;102653.91;5053576;28;20123;-59
2022/07/10 08:55:29;;;;;;;12.00;4.50;;;20.90;99.90;;;20.89;63.50;102624.94;5054356;28;20072;-59
2022/07/10 08:57:59;;;;;;;7.13;3.45;;;20.80;99.90;;;20.83;64.51;102646.59;5053404;28;20040;-60
2022/07/10 09:00:27;;;;;;;5.80;3.78;;;20.60;99.90;;;20.89;64.14;102649.16;5053932;28;20087;-60
2022/07/10 09:02:56;;;;;;;8.02;3.75;;;20.60;99.90;;;21.05;63.78;102653.38;5053406;28;20033;-60
2022/07/10 09:05:27;;;;;;;8.20;3.70;;;20.70;99.90;;;20.90;63.89;102635.69;5053378;28;20041;-60
2022/07/10 09:07:56;;;;;;;;;;;20.60;99.90;;;21.03;64.53;102648.03;5054074;28;20072;-61
2022/07/10 09:10:26;;;;;;;5.95;3.47;;;20.70;99.90;;;20.81;64.42;102643.91;5053628;28;19921;-59
2022/07/10 09:12:56;;;;;;;;;;;20.60;99.90;;;20.74;63.95;102603.69;5053799;28;20048;-59
2022/07/10 09:15:26;;;;;;;7.65;3.47;;;20.60;99.90;;;20.85;64.16;102639.41;5053736;28;19924;-59
2022/07/10 09:17:56;;;;;;;5.57;3.75;;;20.60;99.90;;;20.85;63.92;102636.69;5053497;28;20481;-60
2022/07/10 09:20:30;;;;;;;7.10;3.30;;;20.50;99.90;;;20.71;63.39;102633.38;5052404;28;20467;-60
2022/07/10 09:23:00;;;;;;;7.25;3.60;;;20.50;99.90;;;20.82;64.03;102632.25;5068942;28;20075;-59
2022/07/10 09:25:34;;;;;;;6.72;3.75;;;20.50;99.90;;;20.81;62.21;102633.16;5053209;28;20045;-63
2022/07/10 09:28:06;;;;;;;6.85;3.42;;;20.50;99.90;;;20.87;62.00;102637.53;5053555;28;20049;-64
2022/07/10 09:30:36;;;;;;;6.88;3.80;;;20.50;99.90;;;20.80;61.82;102635.88;5053406;28;20410;-61
2022/07/10 09:33:23;;;;;;;5.45;4.00;;;20.50;99.90;;;20.95;61.76;102640.97;5053133;28;20509;-61
2022/07/10 09:36:08;;;;;;;5.40;3.47;;;20.60;99.90;;;20.97;60.93;102636.44;5052131;28;20049;-60
2022/07/10 09:39:00;;;;;;;6.85;3.40;;;20.70;99.90;;;21.05;61.03;102643.50;5052972;28;20110;-60
2022/07/10 09:41:32;;;;;;;6.30;3.88;;;20.80;99.90;;;21.06;60.61;102628.25;5050855;28;20057;-59
2022/07/10 09:44:02;;;;;;;6.60;3.30;;;20.80;99.90;;;21.16;59.75;102630.72;5053048;28;20163;-61
2022/07/10 09:46:33;;;;;;;;;;;20.90;99.90;;;21.10;59.94;102609.28;5053381;28;20049;-61
2022/07/10 09:49:10;;;;;;;6.97;3.60;;;21.00;99.90;;;21.29;60.49;102626.84;5052973;28;19997;-62
2022/07/10 09:51:42;;;;;;;3.78;3.38;;;21.00;99.90;;;21.42;60.54;102624.81;5053313;28;20076;-61
2022/07/10 09:54:18;;;;;;;7.63;3.65;;;21.10;99.90;;;21.21;59.81;102614.47;5052883;28;20060;-61
2022/07/10 09:56:50;;;;;;;7.03;3.65;;;21.00;99.90;;;21.22;60.27;102625.22;5053407;28;20060;-62
2022/07/10 09:59:21;;;;;;;5.97;3.25;;;20.80;99.90;;;21.40;59.51;102624.84;5053236;28;20094;-60
2022/07/10 10:01:51;;;;;;;8.25;3.72;;;21.00;99.90;;;21.45;59.44;102622.03;5052748;28;20406;-60
2022/07/10 10:04:21;;;;;;;5.63;3.78;;;21.10;99.90;;;21.45;59.02;102620.22;5053313;28;20049;-62
2022/07/10 10:06:54;;;;;;;6.13;3.55;;;21.10;99.90;;;21.39;60.75;102620.34;5053308;28;20045;-61
2022/07/10 10:09:27;;;;;;;4.85;3.42;;;21.10;99.90;;;21.53;60.39;102630.84;5053259;28;20075;-62
2022/07/10 10:12:00;;;;;;;5.00;3.50;;;21.20;99.90;;;21.60;59.85;102628.91;5053168;28;20071;-61
2022/07/10 10:14:30;;;;;;;9.13;3.60;;;21.30;99.90;;;21.47;59.66;102601.34;5051369;28;20084;-61
2022/07/10 10:16:59;;;;;;;5.95;3.28;;;21.20;99.90;;;21.62;59.74;102621.69;5052723;28;20033;-61
2022/07/10 10:22:19;;;;;;;7.97;3.80;;;21.30;99.90;;;21.62;59.19;102614.50;5053114;28;20186;-62
2022/07/10 10:24:49;;;;;;;4.95;3.25;;;21.30;99.90;;;21.66;58.63;102615.31;5052736;28;20048;-60
2022/07/10 10:27:18;;;;;;;5.70;3.40;;;21.30;99.90;;;21.62;58.65;102609.09;5052661;28;20037;-60
2022/07/10 10:29:47;;;;;;;7.70;3.72;;;21.30;99.90;;;21.68;58.42;102608.94;5053032;28;20491;-61
2022/07/10 10:32:16;;;;;;;4.63;3.13;;;21.40;99.90;;;21.64;57.76;102612.63;5052662;28;20065;-61
2022/07/10 10:34:55;;;;;;;6.75;3.47;;;21.40;99.90;;;21.64;57.12;102601.84;5052744;28;20045;-61
2022/07/10 10:37:40;;;;;;;4.32;3.10;;;21.40;99.90;;;21.83;56.25;102600.56;5051491;28;20491;-61
2022/07/10 10:40:11;;;;;;;5.93;3.38;;;21.50;99.90;;;21.91;57.83;102606.63;5052463;28;20045;-61